sensor_id;sensor_type;location;lat;lon;timestamp;noise_LAeq;noise_LA_min;noise_LA_max;noise_LA01;noise_LA95
66589;Laerm;53447;49.272;11.070;2023-02-15T00:00:23;37.55;31.43;41.15;;
66589;Laerm;53447;49.272;11.070;2023-02-15T00:02:48;37.64;31.43;41.15;;
66589;Laerm;53447;49.272;11.070;2023-02-15T00:05:13;38.32;32.05;41.32;;
66589;Laerm;53447;49.272;11.070;2023-02-15T00:07:39;37.70;30.85;41.21;;
66589;Laerm;53447;49.272;11.070;2023-02-15T00:10:04;37.47;32.40;40.97;;
66589;Laerm;53447;49.272;11.070;2023-02-15T00:12:30;40.09;30.85;51.36;;
66589;Laerm;53447;49.272;11.070;2023-02-15T00:14:55;41.71;37.31;52.85;;
66589;Laerm;53447;49.272;11.070;2023-02-15T00:17:20;41.64;37.71;55.41;;
66589;Laerm;53447;49.272;11.070;2023-02-15T00:19:46;39.67;32.40;43.15;;
66589;Laerm;53447;49.272;11.070;2023-02-15T00:22:11;37.74;32.40;41.03;;
66589;Laerm;53447;49.272;11.070;2023-02-15T00:24:36;37.58;31.94;41.26;;
66589;Laerm;53447;49.272;11.070;2023-02-15T00:27:01;37.85;31.94;41.03;;
66589;Laerm;53447;49.272;11.070;2023-02-15T00:29:27;37.77;32.81;41.03;;
66589;Laerm;53447;49.272;11.070;2023-02-15T00:31:53;37.63;30.18;41.14;;
66589;Laerm;53447;49.272;11.070;2023-02-15T00:34:19;37.93;30.85;41.32;;
66589;Laerm;53447;49.272;11.070;2023-02-15T00:36:45;37.85;32.40;40.97;;
66589;Laerm;53447;49.272;11.070;2023-02-15T00:39:10;41.47;32.81;43.57;;
66589;Laerm;53447;49.272;11.070;2023-02-15T00:41:36;41.59;37.71;43.61;;
66589;Laerm;53447;49.272;11.070;2023-02-15T00:44:02;39.19;31.43;44.90;;
66589;Laerm;53447;49.272;11.070;2023-02-15T00:46:27;38.53;31.43;42.61;;
66589;Laerm;53447;49.272;11.070;2023-02-15T00:48:53;39.66;33.19;44.83;;
66589;Laerm;53447;49.272;11.070;2023-02-15T00:51:18;39.36;32.81;47.70;;
66589;Laerm;53447;49.272;11.070;2023-02-15T00:53:43;38.19;31.43;42.65;;
66589;Laerm;53447;49.272;11.070;2023-02-15T00:56:09;38.03;31.94;54.99;;
66589;Laerm;53447;49.272;11.070;2023-02-15T00:58:34;38.11;32.40;42.22;;
66589;Laerm;53447;49.272;11.070;2023-02-15T01:01:04;41.51;32.81;43.47;;
66589;Laerm;53447;49.272;11.070;2023-02-15T01:03:30;42.11;38.31;46.50;;
66589;Laerm;53447;49.272;11.070;2023-02-15T01:05:56;48.19;32.81;66.99;;
66589;Laerm;53447;49.272;11.070;2023-02-15T01:08:21;39.31;31.94;46.87;;
66589;Laerm;53447;49.272;11.070;2023-02-15T01:10:46;39.09;32.40;44.41;;
66589;Laerm;53447;49.272;11.070;2023-02-15T01:13:12;38.18;32.40;43.04;;
66589;Laerm;53447;49.272;11.070;2023-02-15T01:15:37;37.80;30.18;41.09;;
66589;Laerm;53447;49.272;11.070;2023-02-15T01:18:03;38.16;31.94;59.37;;
66589;Laerm;53447;49.272;11.070;2023-02-15T01:20:28;38.14;31.43;43.54;;
66589;Laerm;53447;49.272;11.070;2023-02-15T01:22:53;42.07;38.31;44.33;;
66589;Laerm;53447;49.272;11.070;2023-02-15T01:25:19;41.66;37.96;43.51;;
66589;Laerm;53447;49.272;11.070;2023-02-15T01:27:45;38.58;32.40;43.08;;
66589;Laerm;53447;49.272;11.070;2023-02-15T01:30:11;38.08;32.40;41.69;;
66589;Laerm;53447;49.272;11.070;2023-02-15T01:32:36;38.62;32.40;54.91;;
66589;Laerm;53447;49.272;11.070;2023-02-15T01:35:01;40.82;33.19;43.92;;
66589;Laerm;53447;49.272;11.070;2023-02-15T01:37:29;38.77;33.19;42.13;;
66589;Laerm;53447;49.272;11.070;2023-02-15T01:39:54;40.17;33.86;44.39;;
66589;Laerm;53447;49.272;11.070;2023-02-15T01:42:21;40.76;33.54;43.73;;
66589;Laerm;53447;49.272;11.070;2023-02-15T01:47:16;40.68;31.94;43.30;;
66589;Laerm;53447;49.272;11.070;2023-02-15T01:49:44;40.75;32.40;44.60;;
66589;Laerm;53447;49.272;11.070;2023-02-15T01:52:10;38.52;32.40;41.79;;
66589;Laerm;53447;49.272;11.070;2023-02-15T01:54:36;37.78;30.85;41.09;;
66589;Laerm;53447;49.272;11.070;2023-02-15T01:57:04;37.74;32.40;41.26;;
66589;Laerm;53447;49.272;11.070;2023-02-15T01:59:32;37.81;32.40;41.26;;
66589;Laerm;53447;49.272;11.070;2023-02-15T02:02:00;37.62;30.85;50.03;;
66589;Laerm;53447;49.272;11.070;2023-02-15T02:06:56;41.70;38.08;46.20;;
66589;Laerm;53447;49.272;11.070;2023-02-15T02:09:22;41.62;37.58;51.84;;
66589;Laerm;53447;49.272;11.070;2023-02-15T02:11:47;40.03;32.40;43.08;;
66589;Laerm;53447;49.272;11.070;2023-02-15T02:14:15;38.17;32.40;44.10;;
66589;Laerm;53447;49.272;11.070;2023-02-15T02:16:47;37.76;31.94;40.79;;
66589;Laerm;53447;49.272;11.070;2023-02-15T02:24:46;37.67;31.43;41.26;;
66589;Laerm;53447;49.272;11.070;2023-02-15T02:45:32;37.85;30.18;41.15;;
66589;Laerm;53447;49.272;11.070;2023-02-15T02:47:59;38.47;32.40;42.57;;
66589;Laerm;53447;49.272;11.070;2023-02-15T02:50:27;40.65;32.81;43.57;;
66589;Laerm;53447;49.272;11.070;2023-02-15T02:52:54;41.76;38.31;43.54;;
66589;Laerm;53447;49.272;11.070;2023-02-15T03:00:23;38.18;31.94;41.48;;
66589;Laerm;53447;49.272;11.070;2023-02-15T03:02:49;39.44;33.54;43.08;;
66589;Laerm;53447;49.272;11.070;2023-02-15T03:05:18;38.48;31.94;41.84;;
66589;Laerm;53447;49.272;11.070;2023-02-15T03:07:46;38.49;33.19;42.57;;
66589;Laerm;53447;49.272;11.070;2023-02-15T03:10:14;39.84;33.19;43.73;;
66589;Laerm;53447;49.272;11.070;2023-02-15T03:12:39;41.71;38.28;43.37;;
66589;Laerm;53447;49.272;11.070;2023-02-15T03:15:07;41.32;31.94;43.64;;
66589;Laerm;53447;49.272;11.070;2023-02-15T03:17:36;38.31;32.81;41.69;;
66589;Laerm;53447;49.272;11.070;2023-02-15T03:20:04;38.47;33.54;51.80;;
66589;Laerm;53447;49.272;11.070;2023-02-15T03:22:34;38.44;33.54;41.79;;
66589;Laerm;53447;49.272;11.070;2023-02-15T03:27:35;39.92;33.54;43.54;;
66589;Laerm;53447;49.272;11.070;2023-02-15T03:30:01;38.38;33.19;41.32;;
66589;Laerm;53447;49.272;11.070;2023-02-15T03:32:27;40.43;33.54;43.67;;
66589;Laerm;53447;49.272;11.070;2023-02-15T03:34:54;41.76;38.31;49.73;;
66589;Laerm;53447;49.272;11.070;2023-02-15T03:39:52;39.33;32.81;43.12;;
66589;Laerm;53447;49.272;11.070;2023-02-15T03:42:28;38.31;31.94;41.38;;
66589;Laerm;53447;49.272;11.070;2023-02-15T03:44:58;38.37;33.54;41.43;;
66589;Laerm;53447;49.272;11.070;2023-02-15T03:47:27;38.77;30.85;43.08;;
66589;Laerm;53447;49.272;11.070;2023-02-15T03:50:08;40.11;35.19;42.77;;
66589;Laerm;53447;49.272;11.070;2023-02-15T03:52:55;40.09;34.70;43.37;;
66589;Laerm;53447;49.272;11.070;2023-02-15T03:55:21;41.04;34.70;46.15;;
66589;Laerm;53447;49.272;11.070;2023-02-15T03:57:47;41.18;34.44;44.63;;
66589;Laerm;53447;49.272;11.070;2023-02-15T04:00:31;41.71;37.31;43.89;;
66589;Laerm;53447;49.272;11.070;2023-02-15T04:03:20;50.62;37.31;72.05;;
66589;Laerm;53447;49.272;11.070;2023-02-15T04:05:48;46.29;34.16;67.92;;
66589;Laerm;53447;49.272;11.070;2023-02-15T04:08:13;38.82;32.40;51.74;;
66589;Laerm;53447;49.272;11.070;2023-02-15T04:10:38;38.51;33.86;42.40;;
66589;Laerm;53447;49.272;11.070;2023-02-15T04:13:29;38.74;32.40;45.96;;
66589;Laerm;53447;49.272;11.070;2023-02-15T04:15:54;40.46;34.16;43.67;;
66589;Laerm;53447;49.272;11.070;2023-02-15T04:18:29;41.57;35.82;46.45;;
66589;Laerm;53447;49.272;11.070;2023-02-15T04:21:13;41.68;38.18;44.41;;
66589;Laerm;53447;49.272;11.070;2023-02-15T04:23:57;41.01;35.19;43.86;;
66589;Laerm;53447;49.272;11.070;2023-02-15T04:26:41;39.26;35.41;44.44;;
66589;Laerm;53447;49.272;11.070;2023-02-15T04:29:06;39.23;34.95;42.04;;
66589;Laerm;53447;49.272;11.070;2023-02-15T04:31:32;40.10;36.20;42.22;;
66589;Laerm;53447;49.272;11.070;2023-02-15T04:33:57;39.52;35.62;43.61;;
66589;Laerm;53447;49.272;11.070;2023-02-15T04:36:22;39.58;35.41;42.26;;
66589;Laerm;53447;49.272;11.070;2023-02-15T04:38:47;42.02;36.87;44.36;;
66589;Laerm;53447;49.272;11.070;2023-02-15T04:41:12;41.95;39.03;50.23;;
66589;Laerm;53447;49.272;11.070;2023-02-15T04:43:38;41.84;38.53;50.97;;
66589;Laerm;53447;49.272;11.070;2023-02-15T04:46:03;41.68;36.87;44.07;;
66589;Laerm;53447;49.272;11.070;2023-02-15T04:48:29;40.88;35.41;57.26;;
66589;Laerm;53447;49.272;11.070;2023-02-15T04:50:54;39.61;35.62;42.22;;
66589;Laerm;53447;49.272;11.070;2023-02-15T04:53:19;39.71;35.19;43.47;;
66589;Laerm;53447;49.272;11.070;2023-02-15T04:55:44;39.76;34.95;42.53;;
66589;Laerm;53447;49.272;11.070;2023-02-15T04:58:10;59.06;35.62;79.65;;
66589;Laerm;53447;49.272;11.070;2023-02-15T05:00:35;44.17;36.55;55.18;;
66589;Laerm;53447;49.272;11.070;2023-02-15T05:03:00;53.45;40.53;72.63;;
66589;Laerm;53447;49.272;11.070;2023-02-15T05:05:26;51.05;39.13;69.15;;
66589;Laerm;53447;49.272;11.070;2023-02-15T05:07:51;41.90;37.71;43.67;;
66589;Laerm;53447;49.272;11.070;2023-02-15T05:10:16;40.68;36.87;42.73;;
66589;Laerm;53447;49.272;11.070;2023-02-15T05:12:41;40.86;36.71;50.74;;
66589;Laerm;53447;49.272;11.070;2023-02-15T05:15:07;40.92;36.20;43.30;;
66589;Laerm;53447;49.272;11.070;2023-02-15T05:17:33;40.94;37.58;42.97;;
66589;Laerm;53447;49.272;11.070;2023-02-15T05:19:59;41.61;37.58;43.86;;
66589;Laerm;53447;49.272;11.070;2023-02-15T05:22:24;42.27;39.72;43.83;;
66589;Laerm;53447;49.272;11.070;2023-02-15T05:24:49;50.22;38.95;68.62;;
66589;Laerm;53447;49.272;11.070;2023-02-15T05:27:33;50.89;37.84;70.19;;
66589;Laerm;53447;49.272;11.070;2023-02-15T05:30:17;50.13;36.55;70.75;;
66589;Laerm;53447;49.272;11.070;2023-02-15T05:32:42;49.58;36.38;69.28;;
66589;Laerm;53447;49.272;11.070;2023-02-15T05:35:11;43.41;36.20;59.11;;
66589;Laerm;53447;49.272;11.070;2023-02-15T05:37:38;41.98;38.31;46.05;;
66589;Laerm;53447;49.272;11.070;2023-02-15T05:40:04;42.18;38.63;55.19;;
66589;Laerm;53447;49.272;11.070;2023-02-15T05:42:29;42.00;38.83;49.69;;
66589;Laerm;53447;49.272;11.070;2023-02-15T05:44:54;51.06;39.72;67.85;;
66589;Laerm;53447;49.272;11.070;2023-02-15T05:47:19;53.58;39.39;72.11;;
66589;Laerm;53447;49.272;11.070;2023-02-15T05:49:45;52.48;39.39;70.82;;
66589;Laerm;53447;49.272;11.070;2023-02-15T05:52:10;42.17;39.03;55.72;;
66589;Laerm;53447;49.272;11.070;2023-02-15T05:54:37;45.64;37.45;63.78;;
66589;Laerm;53447;49.272;11.070;2023-02-15T05:57:02;52.44;36.55;72.52;;
66589;Laerm;53447;49.272;11.070;2023-02-15T05:59:27;52.84;36.71;72.92;;
66589;Laerm;53447;49.272;11.070;2023-02-15T06:01:52;42.68;36.71;62.78;;
66589;Laerm;53447;49.272;11.070;2023-02-15T06:04:18;40.59;36.03;49.82;;
66589;Laerm;53447;49.272;11.070;2023-02-15T06:06:43;40.34;37.02;47.26;;
66589;Laerm;53447;49.272;11.070;2023-02-15T06:09:11;43.50;37.71;58.10;;
66589;Laerm;53447;49.272;11.070;2023-02-15T06:11:36;45.57;38.63;60.73;;
66589;Laerm;53447;49.272;11.070;2023-02-15T06:14:01;46.90;40.39;61.92;;
66589;Laerm;53447;49.272;11.070;2023-02-15T06:16:29;56.19;40.66;73.28;;
66589;Laerm;53447;49.272;11.070;2023-02-15T06:18:55;50.48;38.31;69.12;;
66589;Laerm;53447;49.272;11.070;2023-02-15T06:21:20;55.51;38.63;70.93;;
66589;Laerm;53447;49.272;11.070;2023-02-15T06:23:46;45.48;38.42;63.16;;
66589;Laerm;53447;49.272;11.070;2023-02-15T06:26:11;46.66;38.63;68.91;;
66589;Laerm;53447;49.272;11.070;2023-02-15T06:28:36;53.36;39.12;70.62;;
66589;Laerm;53447;49.272;11.070;2023-02-15T06:31:02;56.99;38.73;75.86;;
66589;Laerm;53447;49.272;11.070;2023-02-15T06:33:28;52.52;39.64;71.40;;
66589;Laerm;53447;49.272;11.070;2023-02-15T06:35:55;48.44;40.46;65.34;;
66589;Laerm;53447;49.272;11.070;2023-02-15T06:38:20;48.44;39.80;64.52;;
66589;Laerm;53447;49.272;11.070;2023-02-15T06:40:46;55.59;39.56;71.50;;
66589;Laerm;53447;49.272;11.070;2023-02-15T06:43:11;56.30;40.25;73.80;;
66589;Laerm;53447;49.272;11.070;2023-02-15T06:45:36;50.39;39.88;64.94;;
66589;Laerm;53447;49.272;11.070;2023-02-15T06:48:01;53.98;39.12;69.62;;
66589;Laerm;53447;49.272;11.070;2023-02-15T06:50:26;49.17;39.64;61.41;;
66589;Laerm;53447;49.272;11.070;2023-02-15T06:52:55;50.62;39.56;65.78;;
66589;Laerm;53447;49.272;11.070;2023-02-15T06:55:21;47.54;40.46;57.65;;
66589;Laerm;53447;49.272;11.070;2023-02-15T06:57:46;54.22;40.18;78.98;;
66589;Laerm;53447;49.272;11.070;2023-02-15T07:00:11;50.42;38.93;66.64;;
66589;Laerm;53447;49.272;11.070;2023-02-15T07:02:37;49.09;38.93;67.93;;
66589;Laerm;53447;49.272;11.070;2023-02-15T07:05:02;53.33;38.42;71.66;;
66589;Laerm;53447;49.272;11.070;2023-02-15T07:07:29;54.70;39.48;69.72;;
66589;Laerm;53447;49.272;11.070;2023-02-15T07:09:55;50.51;38.20;64.31;;
66589;Laerm;53447;49.272;11.070;2023-02-15T07:12:20;51.41;39.48;66.80;;
66589;Laerm;53447;49.272;11.070;2023-02-15T07:15:04;53.57;38.83;72.00;;
66589;Laerm;53447;49.272;11.070;2023-02-15T07:17:31;58.02;37.96;76.20;;
66589;Laerm;53447;49.272;11.070;2023-02-15T07:19:56;55.63;37.58;74.00;;
66589;Laerm;53447;49.272;11.070;2023-02-15T07:22:22;54.90;38.53;72.88;;
66589;Laerm;53447;49.272;11.070;2023-02-15T07:24:47;50.14;37.31;69.07;;
66589;Laerm;53447;49.272;11.070;2023-02-15T07:27:14;46.62;37.84;59.46;;
66589;Laerm;53447;49.272;11.070;2023-02-15T07:29:39;55.57;38.42;72.22;;
66589;Laerm;53447;49.272;11.070;2023-02-15T07:32:04;54.26;38.93;69.15;;
66589;Laerm;53447;49.272;11.070;2023-02-15T07:34:29;50.05;39.03;67.51;;
66589;Laerm;53447;49.272;11.070;2023-02-15T07:36:55;52.26;38.63;71.83;;
66589;Laerm;53447;49.272;11.070;2023-02-15T07:39:20;57.26;39.53;72.40;;
66589;Laerm;53447;49.272;11.070;2023-02-15T07:41:46;54.32;39.12;70.21;;
66589;Laerm;53447;49.272;11.070;2023-02-15T07:44:12;49.62;38.93;67.87;;
66589;Laerm;53447;49.272;11.070;2023-02-15T07:46:38;43.85;37.71;56.55;;
66589;Laerm;53447;49.272;11.070;2023-02-15T07:49:03;49.92;38.20;66.06;;
66589;Laerm;53447;49.272;11.070;2023-02-15T07:51:28;42.97;37.96;57.48;;
66589;Laerm;53447;49.272;11.070;2023-02-15T07:53:54;51.75;38.20;69.51;;
66589;Laerm;53447;49.272;11.070;2023-02-15T07:56:20;55.36;37.96;71.55;;
66589;Laerm;53447;49.272;11.070;2023-02-15T07:58:45;51.85;37.02;67.70;;
66589;Laerm;53447;49.272;11.070;2023-02-15T08:01:16;44.62;37.96;64.35;;
66589;Laerm;53447;49.272;11.070;2023-02-15T08:03:42;55.14;38.53;72.45;;
66589;Laerm;53447;49.272;11.070;2023-02-15T08:06:08;45.76;37.96;68.21;;
66589;Laerm;53447;49.272;11.070;2023-02-15T08:08:34;46.30;37.58;63.88;;
66589;Laerm;53447;49.272;11.070;2023-02-15T08:14:05;51.71;37.96;70.48;;
66589;Laerm;53447;49.272;11.070;2023-02-15T08:19:01;56.74;38.42;73.71;;
66589;Laerm;53447;49.272;11.070;2023-02-15T08:21:27;51.60;38.53;69.54;;
66589;Laerm;53447;49.272;11.070;2023-02-15T08:23:53;51.90;39.88;70.18;;
66589;Laerm;53447;49.272;11.070;2023-02-15T08:26:19;49.43;37.58;69.10;;
66589;Laerm;53447;49.272;11.070;2023-02-15T08:28:45;54.29;37.45;75.00;;
66589;Laerm;53447;49.272;11.070;2023-02-15T08:31:11;45.71;38.42;65.63;;
66589;Laerm;53447;49.272;11.070;2023-02-15T08:33:37;46.34;38.08;70.35;;
66589;Laerm;53447;49.272;11.070;2023-02-15T08:36:07;51.45;37.71;68.64;;
66589;Laerm;53447;49.272;11.070;2023-02-15T08:38:33;52.54;37.96;66.95;;
66589;Laerm;53447;49.272;11.070;2023-02-15T08:41:08;43.79;37.58;62.90;;
66589;Laerm;53447;49.272;11.070;2023-02-15T08:43:34;51.68;38.73;69.86;;
66589;Laerm;53447;49.272;11.070;2023-02-15T08:45:59;50.64;39.80;67.70;;
66589;Laerm;53447;49.272;11.070;2023-02-15T08:48:24;56.54;38.08;73.97;;
66589;Laerm;53447;49.272;11.070;2023-02-15T08:50:49;51.68;38.93;65.65;;
66589;Laerm;53447;49.272;11.070;2023-02-15T08:53:15;43.87;38.77;59.11;;
66589;Laerm;53447;49.272;11.070;2023-02-15T08:55:40;52.76;38.20;68.80;;
66589;Laerm;53447;49.272;11.070;2023-02-15T08:58:05;53.91;38.93;70.30;;
66589;Laerm;53447;49.272;11.070;2023-02-15T09:00:31;52.20;38.20;70.55;;
66589;Laerm;53447;49.272;11.070;2023-02-15T09:02:57;43.24;37.84;56.04;;
66589;Laerm;53447;49.272;11.070;2023-02-15T09:05:22;53.17;40.25;69.31;;
66589;Laerm;53447;49.272;11.070;2023-02-15T09:07:47;47.46;38.83;60.61;;
66589;Laerm;53447;49.272;11.070;2023-02-15T09:10:12;46.12;37.31;60.58;;
66589;Laerm;53447;49.272;11.070;2023-02-15T09:12:38;43.44;36.55;60.04;;
66589;Laerm;53447;49.272;11.070;2023-02-15T09:15:03;52.74;37.45;72.75;;
66589;Laerm;53447;49.272;11.070;2023-02-15T09:17:30;51.74;37.71;70.65;;
66589;Laerm;53447;49.272;11.070;2023-02-15T09:19:55;50.73;37.84;71.39;;
66589;Laerm;53447;49.272;11.070;2023-02-15T09:22:20;44.51;37.45;62.29;;
66589;Laerm;53447;49.272;11.070;2023-02-15T09:24:45;45.43;39.03;60.22;;
66589;Laerm;53447;49.272;11.070;2023-02-15T09:27:11;46.04;40.03;61.79;;
66589;Laerm;53447;49.272;11.070;2023-02-15T09:29:36;46.70;39.80;62.23;;
66589;Laerm;53447;49.272;11.070;2023-02-15T09:32:01;49.14;38.28;70.84;;
66589;Laerm;53447;49.272;11.070;2023-02-15T09:34:26;49.42;38.20;64.87;;
66589;Laerm;53447;49.272;11.070;2023-02-15T09:36:52;43.31;38.73;57.74;;
66589;Laerm;53447;49.272;11.070;2023-02-15T09:39:21;43.67;38.20;59.55;;
66589;Laerm;53447;49.272;11.070;2023-02-15T10:13:47;42.94;37.96;56.56;;
66589;Laerm;53447;49.272;11.070;2023-02-15T10:16:26;53.55;39.88;74.28;;
66589;Laerm;53447;49.272;11.070;2023-02-15T10:26:43;44.47;37.84;58.01;;
66589;Laerm;53447;49.272;11.070;2023-02-15T10:31:43;53.28;39.21;73.15;;
66589;Laerm;53447;49.272;11.070;2023-02-15T10:39:24;52.95;38.73;72.39;;
66589;Laerm;53447;49.272;11.070;2023-02-15T10:42:11;51.66;39.96;71.89;;
66589;Laerm;53447;49.272;11.070;2023-02-15T10:57:22;53.82;39.80;74.40;;
66589;Laerm;53447;49.272;11.070;2023-02-15T11:02:29;50.90;42.61;62.02;;
66589;Laerm;53447;49.272;11.070;2023-02-15T11:07:43;44.41;39.56;60.44;;
66589;Laerm;53447;49.272;11.070;2023-02-15T11:12:38;49.25;38.53;67.79;;
66589;Laerm;53447;49.272;11.070;2023-02-15T11:17:45;44.20;39.03;59.05;;
66589;Laerm;53447;49.272;11.070;2023-02-15T11:22:49;43.34;39.03;54.86;;
66589;Laerm;53447;49.272;11.070;2023-02-15T11:25:24;42.52;37.71;53.60;;
66589;Laerm;53447;49.272;11.070;2023-02-15T11:27:50;44.09;37.58;61.82;;
66589;Laerm;53447;49.272;11.070;2023-02-15T11:30:21;46.83;38.53;59.83;;
66589;Laerm;53447;49.272;11.070;2023-02-15T11:32:47;48.93;40.18;65.07;;
66589;Laerm;53447;49.272;11.070;2023-02-15T11:43:16;52.00;39.56;70.12;;
66589;Laerm;53447;49.272;11.070;2023-02-15T11:45:44;56.26;39.88;74.03;;
66589;Laerm;53447;49.272;11.070;2023-02-15T11:48:11;50.37;39.88;66.30;;
66589;Laerm;53447;49.272;11.070;2023-02-15T11:50:37;52.53;40.46;68.02;;
66589;Laerm;53447;49.272;11.070;2023-02-15T11:53:23;49.32;39.30;59.19;;
66589;Laerm;53447;49.272;11.070;2023-02-15T11:55:52;46.37;39.12;63.36;;
66589;Laerm;53447;49.272;11.070;2023-02-15T11:59:04;55.28;38.83;73.77;;
66589;Laerm;53447;49.272;11.070;2023-02-15T12:01:10;49.17;38.08;66.88;;
66589;Laerm;53447;49.272;11.070;2023-02-15T12:03:45;53.86;40.11;74.38;;
66589;Laerm;53447;49.272;11.070;2023-02-15T12:06:19;55.48;37.84;73.74;;
66589;Laerm;53447;49.272;11.070;2023-02-15T12:11:33;43.78;38.83;57.57;;
66589;Laerm;53447;49.272;11.070;2023-02-15T12:14:07;53.10;39.30;70.75;;
66589;Laerm;53447;49.272;11.070;2023-02-15T12:16:46;47.04;39.21;61.90;;
66589;Laerm;53447;49.272;11.070;2023-02-15T12:19:27;49.32;40.69;64.33;;
66589;Laerm;53447;49.272;11.070;2023-02-15T12:21:53;48.52;40.11;62.73;;
66589;Laerm;53447;49.272;11.070;2023-02-15T12:24:20;56.32;38.83;74.43;;
66589;Laerm;53447;49.272;11.070;2023-02-15T12:26:55;44.10;39.12;56.56;;
66589;Laerm;53447;49.272;11.070;2023-02-15T12:29:22;45.20;40.11;61.63;;
66589;Laerm;53447;49.272;11.070;2023-02-15T12:31:48;47.69;40.18;60.24;;
66589;Laerm;53447;49.272;11.070;2023-02-15T12:34:21;47.60;40.03;59.99;;
66589;Laerm;53447;49.272;11.070;2023-02-15T12:36:49;52.59;39.39;73.39;;
66589;Laerm;53447;49.272;11.070;2023-02-15T12:39:20;48.45;39.96;61.79;;
66589;Laerm;53447;49.272;11.070;2023-02-15T12:41:56;53.57;39.48;69.28;;
66589;Laerm;53447;49.272;11.070;2023-02-15T12:49:20;45.41;40.03;56.63;;
66589;Laerm;53447;49.272;11.070;2023-02-15T12:51:47;48.93;39.03;64.98;;
66589;Laerm;53447;49.272;11.070;2023-02-15T12:56:47;50.52;36.87;69.53;;
66589;Laerm;53447;49.272;11.070;2023-02-15T12:59:13;41.50;38.53;60.54;;
66589;Laerm;53447;49.272;11.070;2023-02-15T13:01:39;52.36;39.12;72.19;;
66589;Laerm;53447;49.272;11.070;2023-02-15T13:04:14;41.96;38.08;54.89;;
66589;Laerm;53447;49.272;11.070;2023-02-15T13:06:47;42.19;39.64;50.96;;
66589;Laerm;53447;49.272;11.070;2023-02-15T13:11:51;49.88;37.58;69.03;;
66589;Laerm;53447;49.272;11.070;2023-02-15T13:14:21;50.17;39.21;67.09;;
66589;Laerm;53447;49.272;11.070;2023-02-15T13:16:51;48.76;40.03;66.60;;
66589;Laerm;53447;49.272;11.070;2023-02-15T13:19:20;43.08;39.30;64.07;;
66589;Laerm;53447;49.272;11.070;2023-02-15T13:21:49;42.67;39.30;53.57;;
66589;Laerm;53447;49.272;11.070;2023-02-15T13:24:27;41.99;38.08;54.69;;
66589;Laerm;53447;49.272;11.070;2023-02-15T13:26:55;41.69;37.71;55.43;;
66589;Laerm;53447;49.272;11.070;2023-02-15T13:31:50;61.67;38.53;84.27;;
66589;Laerm;53447;49.272;11.070;2023-02-15T13:34:25;53.09;38.63;71.59;;
66589;Laerm;53447;49.272;11.070;2023-02-15T13:39:45;46.04;40.32;59.21;;
66589;Laerm;53447;49.272;11.070;2023-02-15T13:42:25;43.32;40.46;51.85;;
66589;Laerm;53447;49.272;11.070;2023-02-15T13:55:31;56.71;38.93;72.89;;
66589;Laerm;53447;49.272;11.070;2023-02-15T14:00:32;54.98;39.56;73.31;;
66589;Laerm;53447;49.272;11.070;2023-02-15T14:23:37;46.91;40.32;74.92;;
66589;Laerm;53447;49.272;11.070;2023-02-15T14:31:07;50.89;38.73;71.54;;
66589;Laerm;53447;49.272;11.070;2023-02-15T14:33:54;54.35;39.21;71.01;;
66589;Laerm;53447;49.272;11.070;2023-02-15T14:36:18;47.88;38.83;63.75;;
66589;Laerm;53447;49.272;11.070;2023-02-15T14:41:40;55.07;40.79;71.46;;
66589;Laerm;53447;49.272;11.070;2023-02-15T14:46:42;52.42;38.08;70.80;;
66589;Laerm;53447;49.272;11.070;2023-02-15T14:54:06;48.48;40.32;60.59;;
66589;Laerm;53447;49.272;11.070;2023-02-15T14:56:31;47.12;39.80;58.96;;
66589;Laerm;53447;49.272;11.070;2023-02-15T15:01:41;44.57;40.63;56.61;;
66589;Laerm;53447;49.272;11.070;2023-02-15T15:04:14;54.12;40.11;71.36;;
66589;Laerm;53447;49.272;11.070;2023-02-15T15:06:54;43.85;39.80;59.83;;
66589;Laerm;53447;49.272;11.070;2023-02-15T15:09:24;51.50;39.56;70.55;;
66589;Laerm;53447;49.272;11.070;2023-02-15T15:11:51;50.37;39.56;68.39;;
66589;Laerm;53447;49.272;11.070;2023-02-15T15:16:58;51.23;39.64;72.54;;
66589;Laerm;53447;49.272;11.070;2023-02-15T15:20:05;51.04;39.72;70.38;;
66589;Laerm;53447;49.272;11.070;2023-02-15T15:22:17;46.79;40.53;64.21;;
66589;Laerm;53447;49.272;11.070;2023-02-15T15:29:52;44.99;40.46;59.31;;
66589;Laerm;53447;49.272;11.070;2023-02-15T15:32:19;43.06;40.46;55.27;;
66589;Laerm;53447;49.272;11.070;2023-02-15T15:46:11;47.65;39.21;63.48;;
66589;Laerm;53447;49.272;11.070;2023-02-15T15:51:18;51.06;40.25;64.84;;
66589;Laerm;53447;49.272;11.070;2023-02-15T15:53:45;53.47;40.39;66.31;;
66589;Laerm;53447;49.272;11.070;2023-02-15T15:56:15;53.09;41.03;64.13;;
66589;Laerm;53447;49.272;11.070;2023-02-15T15:58:46;55.89;40.97;74.11;;
66589;Laerm;53447;49.272;11.070;2023-02-15T16:01:13;52.06;41.09;67.44;;
66589;Laerm;53447;49.272;11.070;2023-02-15T16:03:48;51.43;40.59;66.67;;
66589;Laerm;53447;49.272;11.070;2023-02-15T16:06:13;48.06;39.80;60.72;;
66589;Laerm;53447;49.272;11.070;2023-02-15T16:08:39;52.97;40.32;71.26;;
66589;Laerm;53447;49.272;11.070;2023-02-15T16:11:13;47.91;40.11;64.46;;
66589;Laerm;53447;49.272;11.070;2023-02-15T16:13:41;44.34;39.88;56.74;;
66589;Laerm;53447;49.272;11.070;2023-02-15T16:16:06;52.87;39.96;71.27;;
66589;Laerm;53447;49.272;11.070;2023-02-15T16:18:32;42.39;39.30;47.85;;
66589;Laerm;53447;49.272;11.070;2023-02-15T16:21:01;43.50;41.03;53.52;;
66589;Laerm;53447;49.272;11.070;2023-02-15T16:26:07;56.17;39.88;73.23;;
66589;Laerm;53447;49.272;11.070;2023-02-15T16:28:36;49.27;40.18;77.71;;
66589;Laerm;53447;49.272;11.070;2023-02-15T16:31:14;44.94;39.96;59.99;;
66589;Laerm;53447;49.272;11.070;2023-02-15T16:33:40;47.99;39.88;75.80;;
66589;Laerm;53447;49.272;11.070;2023-02-15T16:36:09;53.56;40.79;70.73;;
66589;Laerm;53447;49.272;11.070;2023-02-15T16:41:06;43.26;41.21;50.24;;
66589;Laerm;53447;49.272;11.070;2023-02-15T16:43:32;42.58;40.18;47.68;;
66589;Laerm;53447;49.272;11.070;2023-02-15T16:46:04;42.04;39.56;56.77;;
66589;Laerm;53447;49.272;11.070;2023-02-15T16:48:30;54.05;40.18;69.74;;
66589;Laerm;53447;49.272;11.070;2023-02-15T16:50:56;49.45;40.46;65.95;;
66589;Laerm;53447;49.272;11.070;2023-02-15T16:53:24;59.33;40.39;82.47;;
66589;Laerm;53447;49.272;11.070;2023-02-15T16:55:51;57.18;40.25;79.17;;
66589;Laerm;53447;49.272;11.070;2023-02-15T16:58:19;59.85;40.86;83.20;;
66589;Laerm;53447;49.272;11.070;2023-02-15T17:00:47;54.91;41.09;79.36;;
66589;Laerm;53447;49.272;11.070;2023-02-15T17:05:44;47.15;40.11;64.54;;
66589;Laerm;53447;49.272;11.070;2023-02-15T17:08:43;52.01;40.53;68.29;;
66589;Laerm;53447;49.272;11.070;2023-02-15T17:11:21;54.14;41.29;72.88;;
66589;Laerm;53447;49.272;11.070;2023-02-15T17:16:29;48.55;39.39;66.00;;
66589;Laerm;53447;49.272;11.070;2023-02-15T17:18:56;53.64;40.44;70.10;;
66589;Laerm;53447;49.272;11.070;2023-02-15T17:21:24;44.47;41.26;62.64;;
66589;Laerm;53447;49.272;11.070;2023-02-15T17:23:52;44.13;40.46;67.29;;